createdAt,value
2018-03-07T00:00:50.066Z,959.34
2018-03-07T00:01:50.013Z,959.31
2018-03-07T00:02:49.993Z,959.31
2018-03-07T00:03:49.922Z,959.31
2018-03-07T00:04:49.925Z,959.33
2018-03-07T00:05:49.864Z,959.35
2018-03-07T00:06:49.809Z,959.35
2018-03-07T00:07:49.782Z,959.35
2018-03-07T00:08:49.738Z,959.36
2018-03-07T00:09:49.682Z,959.34
2018-03-07T00:10:49.642Z,959.35
2018-03-07T00:11:49.575Z,959.33
2018-03-07T00:12:49.571Z,959.29
2018-03-07T00:13:49.495Z,959.34
2018-03-07T00:14:49.508Z,959.34
2018-03-07T00:15:49.414Z,959.36
2018-03-07T00:16:49.410Z,959.35
2018-03-07T00:17:49.337Z,959.37
2018-03-07T00:18:49.315Z,959.33
2018-03-07T00:19:49.227Z,959.33
2018-03-07T00:20:49.230Z,959.33
2018-03-07T00:21:49.152Z,959.35
2018-03-07T00:22:49.120Z,959.32
2018-03-07T00:23:49.050Z,959.31
2018-03-07T00:24:49.046Z,959.29
2018-03-07T00:25:48.983Z,959.27
2018-03-07T00:26:48.974Z,959.28
2018-03-07T00:27:48.929Z,959.26
2018-03-07T00:28:48.904Z,959.28
2018-03-07T00:29:48.842Z,959.30
2018-03-07T00:30:48.771Z,959.26
2018-03-07T00:31:48.723Z,959.28
2018-03-07T00:32:48.686Z,959.27
2018-03-07T00:33:48.653Z,959.22
2018-03-07T00:34:48.609Z,959.20
2018-03-07T00:35:48.583Z,959.25
2018-03-07T00:36:48.504Z,959.25
2018-03-07T00:37:48.465Z,959.23
2018-03-07T00:38:48.540Z,959.22
2018-03-07T00:39:48.397Z,959.22
2018-03-07T00:40:48.354Z,959.23
2018-03-07T00:41:48.364Z,959.25
2018-03-07T00:42:48.259Z,959.31
2018-03-07T00:43:48.218Z,959.30
2018-03-07T00:44:48.184Z,959.36
2018-03-07T00:45:48.270Z,959.33
2018-03-07T00:46:48.069Z,959.38
2018-03-07T00:47:48.075Z,959.37
2018-03-07T00:48:47.994Z,959.35
2018-03-07T00:49:47.970Z,959.38
2018-03-07T00:50:47.910Z,959.29
2018-03-07T00:51:47.896Z,959.31
2018-03-07T00:52:47.831Z,959.28
2018-03-07T00:53:47.782Z,959.27
2018-03-07T00:54:47.754Z,959.23
2018-03-07T00:55:47.722Z,959.30
2018-03-07T00:56:47.670Z,959.33
2018-03-07T00:57:47.600Z,959.32
2018-03-07T00:58:47.614Z,959.30
2018-03-07T00:59:47.565Z,959.30
2018-03-07T01:00:47.471Z,959.31
2018-03-07T01:01:47.453Z,959.32
2018-03-07T01:02:47.385Z,959.28
2018-03-07T01:03:47.347Z,959.29
2018-03-07T01:04:47.313Z,959.29
2018-03-07T01:05:47.298Z,959.27
2018-03-07T01:06:47.249Z,959.31
2018-03-07T01:07:47.173Z,959.29
2018-03-07T01:08:47.156Z,959.27
2018-03-07T01:09:47.098Z,959.25
2018-03-07T01:10:47.066Z,959.28
2018-03-07T01:11:47.028Z,959.26
2018-03-07T01:12:46.998Z,959.22
2018-03-07T01:13:46.993Z,959.29
2018-03-07T01:14:46.887Z,959.29
2018-03-07T01:15:46.837Z,959.31
2018-03-07T01:16:46.792Z,959.30
2018-03-07T01:17:46.807Z,959.35
2018-03-07T01:18:46.700Z,959.36
2018-03-07T01:19:46.667Z,959.41
2018-03-07T01:20:47.295Z,959.44
2018-03-07T01:21:46.566Z,959.44
2018-03-07T01:22:46.533Z,959.38
2018-03-07T01:23:46.480Z,959.44
2018-03-07T01:24:46.495Z,959.40
2018-03-07T01:25:46.405Z,959.43
2018-03-07T01:26:46.381Z,959.39
2018-03-07T01:27:46.321Z,959.36
2018-03-07T01:28:46.263Z,959.37
2018-03-07T01:29:46.328Z,959.36
2018-03-07T01:30:46.200Z,959.40
2018-03-07T01:31:46.186Z,959.37
2018-03-07T01:32:46.096Z,959.40
2018-03-07T01:33:46.059Z,959.38
2018-03-07T01:34:46.021Z,959.37
2018-03-07T01:35:45.968Z,959.37
2018-03-07T01:36:45.940Z,959.34
2018-03-07T01:37:45.902Z,959.32
2018-03-07T01:38:45.930Z,959.30
2018-03-07T01:39:45.900Z,959.26
2018-03-07T01:40:45.760Z,959.28
2018-03-07T01:41:45.730Z,959.27
2018-03-07T01:42:45.756Z,959.31
2018-03-07T01:43:46.303Z,959.31
2018-03-07T01:44:45.577Z,959.25
2018-03-07T01:45:45.599Z,959.29
2018-03-07T01:46:45.503Z,959.22
2018-03-07T01:47:45.505Z,959.24
2018-03-07T01:48:45.437Z,959.22
2018-03-07T01:49:46.309Z,959.19
2018-03-07T01:50:45.314Z,959.22
2018-03-07T01:51:45.310Z,959.17
2018-03-07T01:52:45.329Z,959.22
2018-03-07T01:53:45.261Z,959.21
2018-03-07T01:54:45.203Z,959.20
2018-03-07T01:55:45.114Z,959.24
2018-03-07T01:56:45.054Z,959.27
2018-03-07T01:57:45.017Z,959.24
2018-03-07T01:58:45.018Z,959.22
2018-03-07T01:59:44.940Z,959.18
2018-03-07T02:00:44.904Z,959.19
2018-03-07T02:01:44.867Z,959.19
2018-03-07T02:02:45.808Z,959.23
2018-03-07T02:03:44.781Z,959.21
2018-03-07T02:04:44.715Z,959.23
2018-03-07T02:05:44.725Z,959.21
2018-03-07T02:06:44.629Z,959.22
2018-03-07T02:07:44.619Z,959.16
2018-03-07T02:08:44.547Z,959.16
2018-03-07T02:09:44.534Z,959.21
2018-03-07T02:10:44.456Z,959.25
2018-03-07T02:11:44.427Z,959.22
2018-03-07T02:12:44.366Z,959.18
2018-03-07T02:13:44.476Z,959.19
2018-03-07T02:14:44.300Z,959.21
2018-03-07T02:15:44.266Z,959.26
2018-03-07T02:16:44.189Z,959.23
2018-03-07T02:17:44.183Z,959.23
2018-03-07T02:18:44.097Z,959.25
2018-03-07T02:19:44.052Z,959.23
2018-03-07T02:20:44.047Z,959.23
2018-03-07T02:21:44.022Z,959.23
2018-03-07T02:22:43.950Z,959.23
2018-03-07T02:23:43.947Z,959.23
2018-03-07T02:24:43.892Z,959.22
2018-03-07T02:25:43.847Z,959.23
2018-03-07T02:26:43.800Z,959.22
2018-03-07T02:27:43.749Z,959.22
2018-03-07T02:28:43.684Z,959.21
2018-03-07T02:29:43.722Z,959.14
2018-03-07T02:30:43.676Z,959.14
2018-03-07T02:31:43.587Z,959.13
2018-03-07T02:32:43.541Z,959.16
2018-03-07T02:33:43.471Z,959.18
2018-03-07T02:34:43.439Z,959.16
2018-03-07T02:35:43.374Z,959.12
2018-03-07T02:36:43.324Z,959.11
2018-03-07T02:37:43.297Z,959.11
2018-03-07T02:38:43.257Z,959.16
2018-03-07T02:39:43.230Z,959.13
2018-03-07T02:40:43.229Z,959.12
2018-03-07T02:41:43.122Z,959.08
2018-03-07T02:42:43.062Z,959.10
2018-03-07T02:43:43.055Z,959.13
2018-03-07T02:44:43.016Z,959.13
2018-03-07T02:45:42.951Z,959.11
2018-03-07T02:46:42.880Z,959.11
2018-03-07T02:47:42.893Z,959.08
2018-03-07T02:48:42.801Z,959.09
2018-03-07T02:49:42.771Z,959.10
2018-03-07T02:50:42.719Z,959.08
2018-03-07T02:51:42.691Z,959.07
2018-03-07T02:52:42.630Z,959.03
2018-03-07T02:53:42.613Z,958.98
2018-03-07T02:54:42.554Z,958.99
2018-03-07T02:55:42.522Z,958.98
2018-03-07T02:56:42.478Z,959.01
2018-03-07T02:57:42.412Z,959.00
2018-03-07T02:58:42.359Z,958.97
2018-03-07T02:59:42.363Z,958.94
2018-03-07T03:00:42.292Z,958.96
2018-03-07T03:01:42.248Z,958.95
2018-03-07T03:02:42.179Z,958.97
2018-03-07T03:03:42.148Z,958.97
2018-03-07T03:04:42.258Z,958.97
2018-03-07T03:05:42.048Z,958.97
2018-03-07T03:06:42.008Z,959.01
2018-03-07T03:07:41.997Z,958.97
2018-03-07T03:08:41.940Z,959.02
2018-03-07T03:09:41.896Z,959.07
2018-03-07T03:10:41.856Z,959.04
2018-03-07T03:11:41.813Z,959.05
2018-03-07T03:12:41.778Z,959.05
2018-03-07T03:13:41.746Z,959.00
2018-03-07T03:14:41.695Z,959.04
2018-03-07T03:15:42.320Z,959.03
2018-03-07T03:16:41.585Z,959.01
2018-03-07T03:17:41.544Z,959.00
2018-03-07T03:18:41.494Z,959.07
2018-03-07T03:19:41.448Z,959.08
2018-03-07T03:20:41.442Z,959.06
2018-03-07T03:21:41.351Z,959.08
2018-03-07T03:22:41.354Z,959.05
2018-03-07T03:23:41.260Z,959.02
2018-03-07T03:24:41.255Z,959.04
2018-03-07T03:25:41.188Z,959.01
2018-03-07T03:26:41.269Z,959.00
2018-03-07T03:27:41.087Z,959.02
2018-03-07T03:28:41.103Z,959.03
2018-03-07T03:29:41.035Z,959.05
2018-03-07T03:30:40.959Z,959.05
2018-03-07T03:31:40.923Z,959.07
2018-03-07T03:32:40.902Z,959.03
2018-03-07T03:33:40.843Z,959.03
2018-03-07T03:34:40.786Z,959.02
2018-03-07T03:35:40.778Z,959.01
2018-03-07T03:36:40.697Z,959.00
2018-03-07T03:37:40.669Z,959.07
2018-03-07T03:38:40.607Z,959.09
2018-03-07T03:39:40.557Z,959.08
2018-03-07T03:40:40.585Z,959.10
2018-03-07T03:41:40.533Z,959.04
2018-03-07T03:42:40.428Z,959.09
2018-03-07T03:43:40.369Z,959.06
2018-03-07T03:44:40.329Z,959.08
2018-03-07T03:45:40.288Z,959.07
2018-03-07T03:46:40.296Z,959.09
2018-03-07T03:47:40.209Z,959.12
2018-03-07T03:48:40.154Z,959.15
2018-03-07T03:49:40.126Z,959.14
2018-03-07T03:50:40.091Z,959.16
2018-03-07T03:51:40.045Z,959.19
2018-03-07T03:52:39.979Z,959.22
2018-03-07T03:53:39.929Z,959.23
2018-03-07T03:54:39.897Z,959.25
2018-03-07T03:55:39.883Z,959.26
2018-03-07T03:56:39.867Z,959.27
2018-03-07T03:57:39.752Z,959.25
2018-03-07T03:58:39.753Z,959.29
2018-03-07T03:59:39.666Z,959.27
2018-03-07T04:00:39.652Z,959.33
2018-03-07T04:01:39.576Z,959.26
2018-03-07T04:02:39.531Z,959.30
2018-03-07T04:03:39.539Z,959.29
2018-03-07T04:04:39.445Z,959.31
2018-03-07T04:05:39.411Z,959.31
2018-03-07T04:06:39.401Z,959.30
2018-03-07T04:07:39.315Z,959.28
2018-03-07T04:08:39.311Z,959.32
2018-03-07T04:09:39.214Z,959.32
2018-03-07T04:10:39.196Z,959.35
2018-03-07T04:11:40.920Z,959.28
2018-03-07T04:12:39.107Z,959.33
2018-03-07T04:13:39.047Z,959.32
2018-03-07T04:14:38.990Z,959.34
2018-03-07T04:15:38.957Z,959.35
2018-03-07T04:16:38.901Z,959.35
2018-03-07T04:17:38.864Z,959.31
2018-03-07T04:18:38.808Z,959.32
2018-03-07T04:19:38.770Z,959.31
2018-03-07T04:20:38.749Z,959.29
2018-03-07T04:21:38.723Z,959.26
2018-03-07T04:22:38.651Z,959.28
2018-03-07T04:23:38.595Z,959.30
2018-03-07T04:24:38.567Z,959.24
2018-03-07T04:25:38.531Z,959.30
2018-03-07T04:26:38.462Z,959.30
2018-03-07T04:27:38.406Z,959.35
2018-03-07T04:28:38.378Z,959.34
2018-03-07T04:29:38.350Z,959.35
2018-03-07T04:30:38.312Z,959.36
2018-03-07T04:31:38.235Z,959.35
2018-03-07T04:32:38.258Z,959.33
2018-03-07T04:33:38.130Z,959.34
2018-03-07T04:34:38.123Z,959.32
2018-03-07T04:35:38.072Z,959.34
2018-03-07T04:36:38.093Z,959.39
2018-03-07T04:37:37.969Z,959.40
2018-03-07T04:38:37.933Z,959.34
2018-03-07T04:39:37.901Z,959.36
2018-03-07T04:40:37.823Z,959.35
2018-03-07T04:41:37.775Z,959.35
2018-03-07T04:42:37.730Z,959.37
2018-03-07T04:43:37.677Z,959.37
2018-03-07T04:44:37.684Z,959.35
2018-03-07T04:45:37.614Z,959.34
2018-03-07T04:46:37.555Z,959.32
2018-03-07T04:47:37.517Z,959.34
2018-03-07T04:48:37.471Z,959.31
2018-03-07T04:49:37.450Z,959.32
2018-03-07T04:50:37.400Z,959.31
2018-03-07T04:51:37.312Z,959.34
2018-03-07T04:52:37.274Z,959.31
2018-03-07T04:53:37.244Z,959.29
2018-03-07T04:54:37.206Z,959.32
2018-03-07T04:55:37.157Z,959.31
2018-03-07T04:56:37.104Z,959.30
2018-03-07T04:57:37.047Z,959.33
2018-03-07T04:58:37.019Z,959.39
2018-03-07T04:59:36.956Z,959.31
2018-03-07T05:00:36.922Z,959.34
2018-03-07T05:01:36.909Z,959.33
2018-03-07T05:02:36.904Z,959.28
2018-03-07T05:03:36.785Z,959.31
2018-03-07T05:04:36.728Z,959.32
2018-03-07T05:05:36.708Z,959.28
2018-03-07T05:06:36.657Z,959.31
2018-03-07T05:07:36.621Z,959.35
2018-03-07T05:08:36.573Z,959.34
2018-03-07T05:09:36.542Z,959.34
2018-03-07T05:10:36.506Z,959.38
2018-03-07T05:11:36.414Z,959.40
2018-03-07T05:12:36.383Z,959.38
2018-03-07T05:13:36.330Z,959.39
2018-03-07T05:14:36.281Z,959.43
2018-03-07T05:15:36.240Z,959.43
2018-03-07T05:16:36.173Z,959.45
2018-03-07T05:17:36.160Z,959.42
2018-03-07T05:18:36.116Z,959.43
2018-03-07T05:19:36.054Z,959.45
2018-03-07T05:20:36.007Z,959.46
2018-03-07T05:21:36.020Z,959.46
2018-03-07T05:22:35.911Z,959.49
2018-03-07T05:23:35.921Z,959.47
2018-03-07T05:24:35.810Z,959.48
2018-03-07T05:25:35.776Z,959.48
2018-03-07T05:26:35.732Z,959.46
2018-03-07T05:27:35.705Z,959.48
2018-03-07T05:28:35.633Z,959.48
2018-03-07T05:29:35.613Z,959.49
2018-03-07T05:30:35.562Z,959.49
2018-03-07T05:31:35.505Z,959.49
2018-03-07T05:32:35.443Z,959.50
2018-03-07T05:33:35.441Z,959.48
2018-03-07T05:34:35.370Z,959.45
2018-03-07T05:35:35.351Z,959.44
2018-03-07T05:36:35.308Z,959.44
2018-03-07T05:37:35.241Z,959.45
2018-03-07T05:38:35.208Z,959.46
2018-03-07T05:39:35.145Z,959.45
2018-03-07T05:40:35.137Z,959.45
2018-03-07T05:41:35.033Z,959.49
2018-03-07T05:42:35.012Z,959.47
2018-03-07T05:43:34.956Z,959.43
2018-03-07T05:44:34.917Z,959.46
2018-03-07T05:45:34.864Z,959.43
2018-03-07T05:46:34.838Z,959.47
2018-03-07T05:47:34.792Z,959.51
2018-03-07T05:48:34.744Z,959.51
2018-03-07T05:49:34.715Z,959.55
2018-03-07T05:50:34.634Z,959.51
2018-03-07T05:51:34.591Z,959.50
2018-03-07T05:52:34.558Z,959.52
2018-03-07T05:53:34.497Z,959.55
2018-03-07T05:54:34.480Z,959.56
2018-03-07T05:55:34.409Z,959.51
2018-03-07T05:56:34.374Z,959.54
2018-03-07T05:57:34.335Z,959.51
2018-03-07T05:58:34.326Z,959.53
2018-03-07T05:59:34.280Z,959.50
2018-03-07T06:00:34.212Z,959.55
2018-03-07T06:01:34.213Z,959.54
2018-03-07T06:02:34.091Z,959.55
2018-03-07T06:03:34.040Z,959.54
2018-03-07T06:04:34.037Z,959.58
2018-03-07T06:05:33.959Z,959.61
2018-03-07T06:06:33.941Z,959.61
2018-03-07T06:07:33.863Z,959.58
2018-03-07T06:08:33.861Z,959.58
2018-03-07T06:09:33.772Z,959.60
2018-03-07T06:10:33.738Z,959.60
2018-03-07T06:11:33.698Z,959.64
2018-03-07T06:12:33.646Z,959.58
2018-03-07T06:13:33.594Z,959.63
2018-03-07T06:14:33.570Z,959.62
2018-03-07T06:15:33.513Z,959.63
2018-03-07T06:16:33.480Z,959.64
2018-03-07T06:17:33.438Z,959.63
2018-03-07T06:18:33.376Z,959.66
2018-03-07T06:19:33.325Z,959.69
2018-03-07T06:20:33.298Z,959.70
2018-03-07T06:21:33.244Z,959.70
2018-03-07T06:22:33.184Z,959.71
2018-03-07T06:23:33.155Z,959.74
2018-03-07T06:24:33.115Z,959.74
2018-03-07T06:25:33.067Z,959.74
2018-03-07T06:26:33.018Z,959.73
2018-03-07T06:27:32.980Z,959.74
2018-03-07T06:28:32.943Z,959.74
2018-03-07T06:29:32.901Z,959.76
2018-03-07T06:30:32.842Z,959.79
2018-03-07T06:31:32.779Z,959.82
2018-03-07T06:32:32.763Z,959.83
2018-03-07T06:33:32.721Z,959.82
2018-03-07T06:34:32.652Z,959.85
2018-03-07T06:35:32.599Z,959.80
2018-03-07T06:36:32.690Z,959.85
2018-03-07T06:37:32.540Z,959.90
2018-03-07T06:38:32.487Z,959.85
2018-03-07T06:39:32.421Z,959.88
2018-03-07T06:40:32.384Z,959.85
2018-03-07T06:41:32.346Z,959.89
2018-03-07T06:42:32.333Z,959.87
2018-03-07T06:43:32.263Z,959.88
2018-03-07T06:44:32.230Z,959.88
2018-03-07T06:45:32.190Z,959.87
2018-03-07T06:46:32.109Z,959.86
2018-03-07T06:47:32.156Z,959.89
2018-03-07T06:48:32.025Z,959.93
2018-03-07T06:49:31.986Z,959.90
2018-03-07T06:50:31.932Z,959.88
2018-03-07T06:51:31.914Z,959.93
2018-03-07T06:52:31.866Z,959.96
2018-03-07T06:53:31.810Z,959.96
2018-03-07T06:54:31.750Z,959.96
2018-03-07T06:55:31.715Z,960.01
2018-03-07T06:56:31.678Z,960.02
2018-03-07T06:57:31.625Z,960.02
2018-03-07T06:58:31.588Z,960.04
2018-03-07T06:59:31.564Z,960.01
2018-03-07T07:00:31.498Z,960.04
2018-03-07T07:01:31.450Z,960.06
2018-03-07T07:02:31.415Z,960.07
2018-03-07T07:03:31.383Z,960.05
2018-03-07T07:04:31.329Z,960.11
2018-03-07T07:05:31.289Z,960.07
2018-03-07T07:06:31.238Z,960.08
2018-03-07T07:07:31.197Z,960.02
2018-03-07T07:08:31.152Z,960.08
2018-03-07T07:09:31.208Z,960.07
2018-03-07T07:10:31.171Z,960.08
2018-03-07T07:11:31.104Z,960.14
2018-03-07T07:12:31.008Z,960.11
2018-03-07T07:13:30.952Z,960.14
2018-03-07T07:14:30.902Z,960.16
2018-03-07T07:15:30.862Z,960.17
2018-03-07T07:16:30.814Z,960.12
2018-03-07T07:17:30.769Z,960.20
2018-03-07T07:18:30.715Z,960.24
2018-03-07T07:19:30.691Z,960.23
2018-03-07T07:20:30.633Z,960.25
2018-03-07T07:21:30.598Z,960.22
2018-03-07T07:22:30.545Z,960.22
2018-03-07T07:23:30.499Z,960.24
2018-03-07T07:24:30.475Z,960.24
2018-03-07T07:25:30.435Z,960.26
2018-03-07T07:26:30.376Z,960.31
2018-03-07T07:27:30.335Z,960.28
2018-03-07T07:28:30.321Z,960.28
2018-03-07T07:29:30.259Z,960.33
2018-03-07T07:30:30.221Z,960.31
2018-03-07T07:31:30.160Z,960.34
2018-03-07T07:32:30.136Z,960.33
2018-03-07T07:33:30.081Z,960.31
2018-03-07T07:34:30.038Z,960.36
2018-03-07T07:35:29.992Z,960.33
2018-03-07T07:36:29.951Z,960.42
2018-03-07T07:37:29.939Z,960.43
2018-03-07T07:38:29.878Z,960.45
2018-03-07T07:39:29.826Z,960.50
2018-03-07T07:40:29.800Z,960.48
2018-03-07T07:41:29.751Z,960.48
2018-03-07T07:42:29.689Z,960.50
2018-03-07T07:43:29.669Z,960.48
2018-03-07T07:44:29.626Z,960.51
2018-03-07T07:45:29.587Z,960.49
2018-03-07T07:46:29.538Z,960.49
2018-03-07T07:47:29.477Z,960.50
2018-03-07T07:48:29.444Z,960.55
2018-03-07T07:49:29.401Z,960.57
2018-03-07T07:50:29.430Z,960.60
2018-03-07T07:51:29.348Z,960.58
2018-03-07T07:52:29.285Z,960.61
2018-03-07T07:53:29.238Z,960.59
2018-03-07T07:54:29.228Z,960.64
2018-03-07T07:55:29.145Z,960.64
2018-03-07T07:56:29.103Z,960.68
2018-03-07T07:57:29.107Z,960.67
2018-03-07T07:58:29.059Z,960.66
2018-03-07T07:59:29.012Z,960.66
2018-03-07T08:00:28.957Z,960.64
2018-03-07T08:01:28.910Z,960.66
2018-03-07T08:02:28.869Z,960.64
2018-03-07T08:03:28.866Z,960.67
2018-03-07T08:04:28.788Z,960.67
2018-03-07T08:05:28.758Z,960.68
2018-03-07T08:06:28.703Z,960.72
2018-03-07T08:07:28.668Z,960.72
2018-03-07T08:08:28.657Z,960.72
2018-03-07T08:09:28.618Z,960.73
2018-03-07T08:10:28.563Z,960.69
2018-03-07T08:11:28.498Z,960.74
2018-03-07T08:12:28.462Z,960.74
2018-03-07T08:13:28.423Z,960.76
2018-03-07T08:14:28.374Z,960.81
2018-03-07T08:15:28.344Z,960.83
2018-03-07T08:16:28.326Z,960.82
2018-03-07T08:17:28.288Z,960.81
2018-03-07T08:18:28.227Z,960.79
2018-03-07T08:19:28.179Z,960.81
2018-03-07T08:20:28.128Z,960.85
2018-03-07T08:21:28.102Z,960.83
2018-03-07T08:22:28.189Z,960.83
2018-03-07T08:23:28.042Z,960.88
2018-03-07T08:24:28.012Z,960.90
2018-03-07T08:25:27.949Z,960.88
2018-03-07T08:26:27.906Z,960.89
2018-03-07T08:27:27.870Z,960.91
2018-03-07T08:28:27.814Z,960.92
2018-03-07T08:29:27.792Z,960.92
2018-03-07T08:30:27.733Z,960.96
2018-03-07T08:31:27.689Z,960.99
2018-03-07T08:32:27.690Z,960.98
2018-03-07T08:33:27.657Z,961.01
2018-03-07T08:34:27.597Z,961.00
2018-03-07T08:35:27.567Z,961.06
2018-03-07T08:36:27.504Z,961.04
2018-03-07T08:37:27.482Z,961.08
2018-03-07T08:38:27.419Z,961.05
2018-03-07T08:39:27.390Z,961.11
2018-03-07T08:40:27.343Z,961.10
2018-03-07T08:41:27.303Z,961.16
2018-03-07T08:42:27.261Z,961.14
2018-03-07T08:43:27.219Z,961.16
2018-03-07T08:44:27.234Z,961.17
2018-03-07T08:45:27.163Z,961.16
2018-03-07T08:46:27.129Z,961.19
2018-03-07T08:47:27.073Z,961.17
2018-03-07T08:48:27.044Z,961.21
2018-03-07T08:49:27.004Z,961.19
2018-03-07T08:50:26.980Z,961.19
2018-03-07T08:51:26.957Z,961.20
2018-03-07T08:52:26.900Z,961.17
2018-03-07T08:53:26.920Z,961.20
2018-03-07T08:54:26.820Z,961.21
2018-03-07T08:55:26.779Z,961.23
2018-03-07T08:56:26.763Z,961.21
2018-03-07T08:57:26.739Z,961.21
2018-03-07T08:58:26.677Z,961.21
2018-03-07T08:59:27.371Z,961.25
2018-03-07T09:00:26.606Z,961.27
2018-03-07T09:01:26.594Z,961.27
2018-03-07T09:02:26.523Z,961.26
2018-03-07T09:03:26.507Z,961.26
2018-03-07T09:04:26.465Z,961.25
2018-03-07T09:05:26.426Z,961.26
2018-03-07T09:06:26.411Z,961.23
2018-03-07T09:07:26.377Z,961.27
2018-03-07T09:08:26.319Z,961.30
2018-03-07T09:09:26.300Z,961.28
2018-03-07T09:10:26.323Z,961.27
2018-03-07T09:11:26.206Z,961.30
2018-03-07T09:12:26.251Z,961.26
2018-03-07T09:13:26.120Z,961.33
2018-03-07T09:14:26.106Z,961.29
2018-03-07T09:15:26.046Z,961.27
2018-03-07T09:16:26.033Z,961.28
2018-03-07T09:17:26.007Z,961.29
2018-03-07T09:18:25.947Z,961.27
2018-03-07T09:19:25.916Z,961.33
2018-03-07T09:20:25.869Z,961.37
2018-03-07T09:21:25.824Z,961.37
2018-03-07T09:22:25.812Z,961.38
2018-03-07T09:23:25.757Z,961.42
2018-03-07T09:24:25.734Z,961.38
2018-03-07T09:25:25.695Z,961.40
2018-03-07T09:26:25.655Z,961.39
2018-03-07T09:27:25.622Z,961.39
2018-03-07T09:28:25.601Z,961.42
2018-03-07T09:29:25.613Z,961.44
2018-03-07T09:30:25.605Z,961.41
2018-03-07T09:31:25.479Z,961.45
2018-03-07T09:32:25.454Z,961.46
2018-03-07T09:33:25.390Z,961.45
2018-03-07T09:34:25.366Z,961.50
2018-03-07T09:35:25.340Z,961.51
2018-03-07T09:36:25.303Z,961.54
2018-03-07T09:37:25.240Z,961.57
2018-03-07T09:38:25.220Z,961.55
2018-03-07T09:39:25.227Z,961.56
2018-03-07T09:40:25.134Z,961.57
2018-03-07T09:41:25.110Z,961.56
2018-03-07T09:42:25.048Z,961.59
2018-03-07T09:43:25.053Z,961.57
2018-03-07T09:44:24.992Z,961.63
2018-03-07T09:45:24.950Z,961.66
2018-03-07T09:46:24.917Z,961.65
2018-03-07T09:47:24.859Z,961.68
2018-03-07T09:48:24.823Z,961.65
2018-03-07T09:49:24.783Z,961.69
2018-03-07T09:50:24.758Z,961.68
2018-03-07T09:51:24.719Z,961.74
2018-03-07T09:52:24.682Z,961.70
2018-03-07T09:53:24.655Z,961.72
2018-03-07T09:54:24.621Z,961.70
2018-03-07T09:55:24.623Z,961.69
2018-03-07T09:56:24.598Z,961.73
2018-03-07T09:57:24.484Z,961.70
2018-03-07T09:58:24.476Z,961.77
2018-03-07T09:59:24.408Z,961.73
2018-03-07T10:00:24.412Z,961.78
2018-03-07T10:01:24.348Z,961.78
2018-03-07T10:02:24.338Z,961.80
2018-03-07T10:03:24.315Z,961.82
2018-03-07T10:04:24.228Z,961.82
2018-03-07T10:05:24.201Z,961.82
2018-03-07T10:06:24.160Z,961.80
2018-03-07T10:07:24.120Z,961.84
2018-03-07T10:08:24.072Z,961.83
2018-03-07T10:09:24.029Z,961.83
2018-03-07T10:10:24.005Z,961.88
2018-03-07T10:11:23.966Z,961.88
2018-03-07T10:12:23.955Z,961.92
2018-03-07T10:13:23.888Z,961.95
2018-03-07T10:14:23.869Z,961.90
2018-03-07T10:15:23.796Z,961.92
2018-03-07T10:16:23.782Z,961.91
2018-03-07T10:17:23.798Z,961.93
2018-03-07T10:18:23.720Z,961.91
2018-03-07T10:19:23.640Z,961.93
2018-03-07T10:20:23.616Z,961.93
2018-03-07T10:21:23.570Z,961.93
2018-03-07T10:22:23.533Z,961.92
2018-03-07T10:23:23.564Z,961.93
2018-03-07T10:24:23.459Z,961.94
2018-03-07T10:25:23.431Z,961.96
2018-03-07T10:26:23.366Z,961.97
2018-03-07T10:27:23.373Z,961.97
2018-03-07T10:28:23.300Z,961.99
2018-03-07T10:29:23.259Z,962.01
2018-03-07T10:30:23.232Z,962.03
2018-03-07T10:31:23.181Z,962.05
2018-03-07T10:32:23.149Z,962.03
2018-03-07T10:33:23.149Z,962.04
2018-03-07T10:34:23.081Z,962.01
2018-03-07T10:35:23.028Z,962.02
2018-03-07T10:36:23.003Z,962.02
2018-03-07T10:37:22.954Z,962.02
2018-03-07T10:38:22.925Z,961.99
2018-03-07T10:39:22.870Z,962.00
2018-03-07T10:40:22.838Z,962.03
2018-03-07T10:41:22.798Z,962.03
2018-03-07T10:42:22.752Z,962.03
2018-03-07T10:43:22.720Z,962.02
2018-03-07T10:44:22.718Z,962.03
2018-03-07T10:45:22.697Z,962.05
2018-03-07T10:46:22.620Z,962.06
2018-03-07T10:47:22.564Z,962.10
2018-03-07T10:48:22.534Z,962.09
2018-03-07T10:49:22.489Z,962.13
2018-03-07T10:50:22.503Z,962.12
2018-03-07T10:51:22.424Z,962.16
2018-03-07T10:52:22.407Z,962.19
2018-03-07T10:53:22.339Z,962.17
2018-03-07T10:54:22.294Z,962.18
2018-03-07T10:55:22.297Z,962.24
2018-03-07T10:56:22.253Z,962.25
2018-03-07T10:57:22.180Z,962.23
2018-03-07T10:58:22.155Z,962.30
2018-03-07T10:59:22.128Z,962.30
2018-03-07T11:00:22.085Z,962.28
2018-03-07T11:01:22.075Z,962.27
2018-03-07T11:02:22.004Z,962.30
2018-03-07T11:03:21.972Z,962.31
2018-03-07T11:04:21.926Z,962.32
2018-03-07T11:05:21.918Z,962.30
2018-03-07T11:06:21.872Z,962.29
2018-03-07T11:07:21.851Z,962.31
2018-03-07T11:08:21.850Z,962.34
2018-03-07T11:09:21.810Z,962.30
2018-03-07T11:10:21.735Z,962.38
2018-03-07T11:11:21.712Z,962.34
2018-03-07T11:12:21.704Z,962.37
2018-03-07T11:13:21.663Z,962.34
2018-03-07T11:14:21.627Z,962.37
2018-03-07T11:15:21.587Z,962.41
2018-03-07T11:16:21.565Z,962.41
2018-03-07T11:17:21.538Z,962.40
2018-03-07T11:18:21.526Z,962.35
2018-03-07T11:19:21.473Z,962.36
2018-03-07T11:20:21.453Z,962.39
2018-03-07T11:21:21.434Z,962.40
2018-03-07T11:22:21.401Z,962.35
2018-03-07T11:23:21.415Z,962.33
2018-03-07T11:24:21.323Z,962.32
2018-03-07T11:25:21.325Z,962.36
2018-03-07T11:26:21.299Z,962.37
2018-03-07T11:27:21.255Z,962.36
2018-03-07T11:28:21.240Z,962.37
2018-03-07T11:29:21.209Z,962.47
2018-03-07T11:30:21.175Z,962.47
2018-03-07T11:31:21.141Z,962.45
2018-03-07T11:32:21.116Z,962.46
2018-03-07T11:33:21.118Z,962.52
2018-03-07T11:34:21.104Z,962.50
2018-03-07T11:35:21.031Z,962.54
2018-03-07T11:36:21.007Z,962.53
2018-03-07T11:37:20.990Z,962.52
2018-03-07T11:38:20.954Z,962.51
2018-03-07T11:39:20.929Z,962.54
2018-03-07T11:40:20.906Z,962.56
2018-03-07T11:41:20.893Z,962.57
2018-03-07T11:42:20.854Z,962.56
2018-03-07T11:43:20.832Z,962.55
2018-03-07T11:44:20.826Z,962.55
2018-03-07T11:45:20.774Z,962.52
2018-03-07T11:46:20.743Z,962.54
2018-03-07T11:47:20.727Z,962.54
2018-03-07T11:48:20.698Z,962.49
2018-03-07T11:49:20.666Z,962.44
2018-03-07T11:50:20.621Z,962.56
2018-03-07T11:51:20.601Z,962.51
2018-03-07T11:52:20.571Z,962.57
2018-03-07T11:53:20.558Z,962.53
2018-03-07T11:54:20.509Z,962.53
2018-03-07T11:55:20.503Z,962.51
2018-03-07T11:56:20.474Z,962.51
2018-03-07T11:57:20.478Z,962.51
2018-03-07T11:58:20.375Z,962.53
2018-03-07T11:59:20.370Z,962.54
2018-03-07T12:00:20.329Z,962.56
2018-03-07T12:01:20.307Z,962.54
2018-03-07T12:02:20.269Z,962.53
2018-03-07T12:03:20.243Z,962.54
2018-03-07T12:04:20.198Z,962.56
2018-03-07T12:05:20.192Z,962.53
2018-03-07T12:06:20.151Z,962.56
2018-03-07T12:07:20.130Z,962.58
2018-03-07T12:08:20.107Z,962.54
2018-03-07T12:09:20.078Z,962.57
2018-03-07T12:10:20.039Z,962.54
2018-03-07T12:11:20.034Z,962.59
2018-03-07T12:12:20.014Z,962.57
2018-03-07T12:13:19.980Z,962.53
2018-03-07T12:14:19.999Z,962.58
2018-03-07T12:15:19.952Z,962.57
2018-03-07T12:16:19.889Z,962.64
2018-03-07T12:17:19.853Z,962.58
2018-03-07T12:18:19.832Z,962.58
2018-03-07T12:19:19.817Z,962.59
2018-03-07T12:20:19.773Z,962.63
2018-03-07T12:21:19.790Z,962.65
2018-03-07T12:22:19.721Z,962.65
2018-03-07T12:23:19.696Z,962.65
2018-03-07T12:24:19.663Z,962.65
2018-03-07T12:25:19.640Z,962.68
2018-03-07T12:26:19.635Z,962.68
2018-03-07T12:27:19.600Z,962.74
2018-03-07T12:28:19.580Z,962.69